Time;durP1;ratioP1;P1;durP2;ratioP2;P2;SDS_P1;SDS_P2;PMS_P1;PMS_P2;Temp;Humidity;BMP_temperature;BMP_pressure;BME280_temperature;BME280_humidity;BME280_pressure;Samples;Min_cycle;Max_cycle;Signal;HPM_P1;HPM_P2
2024/01/03 00:00:56;;;;;;;6.70;3.60;;;;;;;-128.00;-1.00;-1.00;100531;1279;1003305;-34
2024/01/03 00:03:22;;;;;;;6.60;3.30;;;;;;;-128.00;-1.00;-1.00;100553;1279;1002496;-34
2024/01/03 00:05:48;;;;;;;7.90;3.80;;;;;;;-128.00;-1.00;-1.00;100519;1279;1059353;-35
2024/01/03 00:08:26;;;;;;;4.70;3.20;;;;;;;-128.00;-1.00;-1.00;100666;1279;1003625;-35
2024/01/03 00:10:53;;;;;;;5.70;3.00;;;;;;;-128.00;-1.00;-1.00;100616;1279;1046314;-34
2024/01/03 00:13:47;;;;;;;6.90;2.90;;;;;;;-128.00;-1.00;-1.00;100587;1279;1003147;-34
2024/01/03 00:16:19;;;;;;;6.00;2.70;;;;;;;-128.00;-1.00;-1.00;100554;1279;1055834;-35
2024/01/03 00:18:54;;;;;;;5.40;2.90;;;;;;;-128.00;-1.00;-1.00;100620;1279;1059458;-34
2024/01/03 00:21:25;;;;;;;4.50;2.10;;;;;;;-128.00;-1.00;-1.00;100480;1279;1013689;-35
2024/01/03 00:23:58;;;;;;;6.10;2.80;;;;;;;-128.00;-1.00;-1.00;100508;1283;1037803;-35
2024/01/03 00:26:28;;;;;;;5.40;2.60;;;;;;;-128.00;-1.00;-1.00;100609;1279;1046423;-35
2024/01/03 00:28:53;;;;;;;5.70;2.60;;;;;;;-128.00;-1.00;-1.00;100551;1279;1063035;-35
2024/01/03 00:31:44;;;;;;;5.60;2.50;;;;;;;-128.00;-1.00;-1.00;100481;1279;1004754;-34
2024/01/03 00:34:34;;;;;;;5.20;3.00;;;;;;;-128.00;-1.00;-1.00;100459;1279;1058204;-35
2024/01/03 00:37:00;;;;;;;4.00;2.00;;;;;;;-128.00;-1.00;-1.00;100499;1283;1013540;-34
2024/01/03 00:39:32;;;;;;;6.30;2.80;;;;;;;-128.00;-1.00;-1.00;100515;1279;1005164;-34
2024/01/03 00:41:58;;;;;;;4.90;2.50;;;;;;;-128.00;-1.00;-1.00;100603;1279;1045795;-35
2024/01/03 00:44:24;;;;;;;6.50;2.30;;;;;;;-128.00;-1.00;-1.00;100640;1279;1004261;-34
2024/01/03 00:46:51;;;;;;;5.60;2.50;;;;;;;-128.00;-1.00;-1.00;100503;1279;1003924;-33
2024/01/03 00:49:17;;;;;;;3.90;2.10;;;;;;;-128.00;-1.00;-1.00;100548;1279;1012518;-35
2024/01/03 00:51:46;;;;;;;5.10;2.40;;;;;;;-128.00;-1.00;-1.00;100698;1279;1004681;-35
2024/01/03 00:54:11;;;;;;;4.80;2.20;;;;;;;-128.00;-1.00;-1.00;100579;1279;1003951;-35
2024/01/03 00:56:37;;;;;;;4.00;2.40;;;;;;;-128.00;-1.00;-1.00;100591;1279;1003747;-34
2024/01/03 00:59:02;;;;;;;2.90;2.00;;;;;;;-128.00;-1.00;-1.00;100521;1279;1004865;-35
2024/01/03 01:01:28;;;;;;;3.70;2.00;;;;;;;-128.00;-1.00;-1.00;100472;1279;1013147;-34
2024/01/03 01:03:53;;;;;;;5.20;2.00;;;;;;;-128.00;-1.00;-1.00;100587;1283;1002462;-33
2024/01/03 01:06:19;;;;;;;3.90;2.30;;;;;;;-128.00;-1.00;-1.00;100600;1279;1060797;-33
2024/01/03 01:08:44;;;;;;;3.80;2.40;;;;;;;-128.00;-1.00;-1.00;100652;1279;1004235;-35
2024/01/03 01:11:10;;;;;;;5.10;2.20;;;;;;;-128.00;-1.00;-1.00;100559;1279;1003497;-34
2024/01/03 01:13:36;;;;;;;2.90;1.60;;;;;;;-128.00;-1.00;-1.00;100510;1279;1003900;-34
2024/01/03 01:16:01;;;;;;;4.40;2.20;;;;;;;-128.00;-1.00;-1.00;100539;1278;1003716;-35
2024/01/03 01:18:27;;;;;;;3.60;2.30;;;;;;;-128.00;-1.00;-1.00;100662;1279;1055224;-35
2024/01/03 01:20:52;;;;;;;4.30;1.80;;;;;;;-128.00;-1.00;-1.00;100537;1279;1003931;-32
2024/01/03 01:23:18;;;;;;;3.50;2.10;;;;;;;-128.00;-1.00;-1.00;100601;1279;1004675;-33
2024/01/03 01:25:44;;;;;;;4.70;2.00;;;;;;;-128.00;-1.00;-1.00;100580;1279;1003211;-36
2024/01/03 01:28:09;;;;;;;3.30;2.00;;;;;;;-128.00;-1.00;-1.00;100564;1279;1056435;-33
2024/01/03 01:30:35;;;;;;;2.90;2.00;;;;;;;-128.00;-1.00;-1.00;100553;1281;1004697;-35
2024/01/03 01:33:00;;;;;;;3.30;2.00;;;;;;;-128.00;-1.00;-1.00;100602;1279;1003136;-34
2024/01/03 01:35:26;;;;;;;3.80;2.30;;;;;;;-128.00;-1.00;-1.00;100597;1279;1045801;-33
2024/01/03 01:37:51;;;;;;;3.60;2.20;;;;;;;-128.00;-1.00;-1.00;100586;1279;1004707;-34
2024/01/03 01:40:17;;;;;;;4.00;2.40;;;;;;;-128.00;-1.00;-1.00;100497;1279;1059207;-35
2024/01/03 01:42:46;;;;;;;5.70;2.40;;;;;;;-128.00;-1.00;-1.00;100505;1279;1003964;-34
2024/01/03 01:45:11;;;;;;;5.50;2.10;;;;;;;-128.00;-1.00;-1.00;100695;1279;1005807;-34
2024/01/03 01:47:38;;;;;;;3.70;2.00;;;;;;;-128.00;-1.00;-1.00;100610;1279;1003552;-34
2024/01/03 01:50:05;;;;;;;4.60;1.90;;;;;;;-128.00;-1.00;-1.00;100545;1279;1003439;-34
2024/01/03 02:34:11;;;;;;;6.90;2.40;;;;;;;-101.73;19.20;19434.09;100974;1279;1601507;-33
2024/01/03 02:36:36;;;;;;;3.80;2.50;;;;;;;-128.00;-1.00;-1.00;97732;1281;1018254;-36
2024/01/03 02:39:06;;;;;;;3.80;2.50;;;;;;;-128.00;-1.00;-1.00;43358;1301;26637748;-35
2024/01/03 02:46:01;;;;;;;3.80;2.50;;;;;;;-128.00;-1.00;-1.00;5524;1303;360122580;-37
2024/01/03 02:54:14;;;;;;;3.80;2.50;;;;;;;-128.00;-1.00;-1.00;4;7504280;393499931;-36
2024/01/03 03:03:26;;;;;;;3.80;2.50;;;;;;;-128.00;-1.00;-1.00;2;543179579;543179579;-37
2024/01/03 03:13:13;;;;;;;3.80;2.50;;;;;;;-128.00;-1.00;-1.00;2;579191656;579191656;-36
2024/01/03 03:20:45;;;;;;;3.80;2.50;;;;;;;-128.00;-1.00;-1.00;2;444152052;444152052;-36
2024/01/03 03:26:56;;;;;;;3.80;2.50;;;;;;;-128.00;-1.00;-1.00;2;363119773;363119773;-37
2024/01/03 03:38:15;;;;;;;3.80;2.50;;;;;;;-128.00;-1.00;-1.00;4;7504843;579199661;-37
2024/01/03 03:47:26;;;;;;;3.80;2.50;;;;;;;-128.00;-1.00;-1.00;2;543183504;543183504;-36
2024/01/03 03:57:22;;;;;;;3.80;2.50;;;;;;;-128.00;-1.00;-1.00;2;588202073;588202073;-37
2024/01/03 04:04:54;;;;;;;3.80;2.50;;;;;;;-128.00;-1.00;-1.00;2;444152520;444152520;-36
2024/01/03 04:11:05;;;;;;;3.80;2.50;;;;;;;-128.00;-1.00;-1.00;2;363125799;363125799;-36
2024/01/03 04:22:25;;;;;;;3.80;2.50;;;;;;;-128.00;-1.00;-1.00;4;7506289;579198254;-37
2024/01/03 04:31:36;;;;;;;3.80;2.50;;;;;;;-128.00;-1.00;-1.00;2;543190327;543190327;-36
2024/01/03 04:41:33;;;;;;;3.80;2.50;;;;;;;-128.00;-1.00;-1.00;2;588196872;588196872;-35
2024/01/03 04:49:05;;;;;;;3.80;2.50;;;;;;;-128.00;-1.00;-1.00;2;444152415;444152415;-36
2024/01/03 04:55:16;;;;;;;3.80;2.50;;;;;;;-128.00;-1.00;-1.00;2;363125544;363125544;-34
2024/01/03 05:06:35;;;;;;;3.80;2.50;;;;;;;-128.00;-1.00;-1.00;4;7505398;579196979;-33
2024/01/03 05:15:46;;;;;;;3.80;2.50;;;;;;;-128.00;-1.00;-1.00;2;543187281;543187281;-32
2024/01/03 05:25:43;;;;;;;3.80;2.50;;;;;;;-128.00;-1.00;-1.00;2;588201863;588201863;-33
2024/01/03 05:33:15;;;;;;;3.80;2.50;;;;;;;-128.00;-1.00;-1.00;2;444156406;444156406;-33
2024/01/03 05:39:26;;;;;;;3.80;2.50;;;;;;;-128.00;-1.00;-1.00;2;363127377;363127377;-32
2024/01/03 05:50:45;;;;;;;3.80;2.50;;;;;;;-128.00;-1.00;-1.00;4;7505450;579197548;-33
2024/01/03 05:59:56;;;;;;;3.80;2.50;;;;;;;-128.00;-1.00;-1.00;2;543184551;543184551;-32
2024/01/03 06:09:53;;;;;;;3.80;2.50;;;;;;;-128.00;-1.00;-1.00;2;588206410;588206410;-33
2024/01/03 06:17:25;;;;;;;3.80;2.50;;;;;;;-128.00;-1.00;-1.00;2;444150577;444150577;-31
2024/01/03 06:23:37;;;;;;;3.80;2.50;;;;;;;-128.00;-1.00;-1.00;2;363126579;363126579;-32
2024/01/03 06:34:56;;;;;;;3.80;2.50;;;;;;;-128.00;-1.00;-1.00;4;7504883;579202000;-31
2024/01/03 06:44:07;;;;;;;3.80;2.50;;;;;;;-128.00;-1.00;-1.00;2;543184272;543184272;-32
2024/01/03 06:54:06;;;;;;;3.80;2.50;;;;;;;-128.00;-1.00;-1.00;2;588199975;588199975;-32
2024/01/03 07:01:38;;;;;;;3.80;2.50;;;;;;;-128.00;-1.00;-1.00;2;444150194;444150194;-33
2024/01/03 07:07:49;;;;;;;3.80;2.50;;;;;;;-128.00;-1.00;-1.00;2;363126272;363126272;-43
2024/01/03 07:19:08;;;;;;;3.80;2.50;;;;;;;-128.00;-1.00;-1.00;4;7504497;579202419;-33
2024/01/03 07:28:19;;;;;;;3.80;2.50;;;;;;;-128.00;-1.00;-1.00;2;543182291;543182291;-34
2024/01/03 07:38:18;;;;;;;3.80;2.50;;;;;;;-128.00;-1.00;-1.00;2;588194905;588194905;-34
2024/01/03 07:45:50;;;;;;;3.80;2.50;;;;;;;-128.00;-1.00;-1.00;2;444150415;444150415;-33
2024/01/03 07:52:01;;;;;;;3.80;2.50;;;;;;;-128.00;-1.00;-1.00;2;363130158;363130158;-34
2024/01/03 08:03:20;;;;;;;3.80;2.50;;;;;;;-128.00;-1.00;-1.00;4;7505048;579200717;-34
2024/01/03 08:12:31;;;;;;;3.80;2.50;;;;;;;-128.00;-1.00;-1.00;2;543181782;543181782;-34
2024/01/03 08:22:27;;;;;;;3.80;2.50;;;;;;;-128.00;-1.00;-1.00;2;588194257;588194257;-34
2024/01/03 08:30:00;;;;;;;3.80;2.50;;;;;;;-128.00;-1.00;-1.00;2;444160275;444160275;-34
2024/01/03 08:36:12;;;;;;;3.80;2.50;;;;;;;-128.00;-1.00;-1.00;2;363128497;363128497;-33
2024/01/03 08:47:30;;;;;;;3.80;2.50;;;;;;;-128.00;-1.00;-1.00;4;7505149;579196712;-33
2024/01/03 08:56:42;;;;;;;3.80;2.50;;;;;;;-128.00;-1.00;-1.00;2;543188952;543188952;-33
2024/01/03 08:59:35;;;;;;;3.80;2.50;;;;;;;-128.00;-1.00;-1.00;2062;1304;122057813;-34
2024/01/03 09:08:25;;;;;;;3.80;2.50;;;;;;;-128.00;-1.00;-1.00;6227;1294;508799610;-34
2024/01/03 09:17:40;;;;;;;3.80;2.50;;;;;;;-128.00;-1.00;-1.00;2;543183060;543183060;-34
2024/01/03 09:27:36;;;;;;;3.80;2.50;;;;;;;-128.00;-1.00;-1.00;2;588201434;588201434;-34
2024/01/03 09:35:10;;;;;;;3.80;2.50;;;;;;;-128.00;-1.00;-1.00;2;444153759;444153759;-34
2024/01/03 09:41:21;;;;;;;3.80;2.50;;;;;;;-128.00;-1.00;-1.00;2;363127677;363127677;-34
2024/01/03 09:52:40;;;;;;;3.80;2.50;;;;;;;-128.00;-1.00;-1.00;4;7504843;579203032;-34
2024/01/03 10:01:26;;;;;;;3.80;2.50;;;;;;;-128.00;-1.00;-1.00;2;518001863;518001863;-34
2024/01/03 10:11:23;;;;;;;3.80;2.50;;;;;;;-128.00;-1.00;-1.00;2;588198021;588198021;-33
2024/01/03 10:19:08;;;;;;;3.80;2.50;;;;;;;-128.00;-1.00;-1.00;2;444155529;444155529;-34
2024/01/03 10:25:19;;;;;;;3.80;2.50;;;;;;;-128.00;-1.00;-1.00;2;363122288;363122288;-33
2024/01/03 10:36:41;;;;;;;3.80;2.50;;;;;;;-128.00;-1.00;-1.00;4;7505360;579196184;-33
2024/01/03 10:45:54;;;;;;;3.80;2.50;;;;;;;-128.00;-1.00;-1.00;2;543188006;543188006;-35
2024/01/03 10:55:50;;;;;;;3.80;2.50;;;;;;;-128.00;-1.00;-1.00;2;588197946;588197946;-33
2024/01/03 11:03:34;;;;;;;3.80;2.50;;;;;;;-128.00;-1.00;-1.00;2;444150850;444150850;-33
2024/01/03 11:09:45;;;;;;;3.80;2.50;;;;;;;-128.00;-1.00;-1.00;2;363127435;363127435;-33
2024/01/03 11:21:16;;;;;;;3.80;2.50;;;;;;;-128.00;-1.00;-1.00;4;7504424;579198370;-33
2024/01/03 11:30:40;;;;;;;3.80;2.50;;;;;;;-128.00;-1.00;-1.00;2;543185127;543185127;-35
2024/01/03 11:40:36;;;;;;;3.80;2.50;;;;;;;-128.00;-1.00;-1.00;2;588195692;588195692;-35
2024/01/03 11:48:09;;;;;;;3.80;2.50;;;;;;;-128.00;-1.00;-1.00;2;444151081;444151081;-33
2024/01/03 11:54:21;;;;;;;3.80;2.50;;;;;;;-128.00;-1.00;-1.00;2;363124381;363124381;-32
2024/01/03 12:05:44;;;;;;;3.80;2.50;;;;;;;-128.00;-1.00;-1.00;4;7505461;579196930;-31
2024/01/03 12:14:55;;;;;;;3.80;2.50;;;;;;;-128.00;-1.00;-1.00;2;543189546;543189546;-31
2024/01/03 12:24:52;;;;;;;3.80;2.50;;;;;;;-128.00;-1.00;-1.00;2;588202908;588202908;-31
2024/01/03 12:32:24;;;;;;;3.80;2.50;;;;;;;-128.00;-1.00;-1.00;2;444153823;444153823;-33
2024/01/03 12:38:35;;;;;;;3.80;2.50;;;;;;;-128.00;-1.00;-1.00;2;363127272;363127272;-34
2024/01/03 12:49:55;;;;;;;3.80;2.50;;;;;;;-128.00;-1.00;-1.00;4;7504906;579198177;-34
2024/01/03 12:59:08;;;;;;;3.80;2.50;;;;;;;-128.00;-1.00;-1.00;2;543188907;543188907;-34
2024/01/03 13:04:17;;;;;;;3.80;2.50;;;;;;;-128.00;-1.00;-1.00;2;305850402;305850402;-34
2024/01/03 13:08:18;;;;;;;3.80;2.50;;;;;;;-128.00;-1.00;-1.00;735;1304;127539933;-34
2024/01/03 13:19:23;;;;;;;3.80;2.50;;;;;;;-128.00;-1.00;-1.00;179;1307;576199502;-34
2024/01/03 13:28:34;;;;;;;3.80;2.50;;;;;;;-128.00;-1.00;-1.00;2;543189435;543189435;-34
2024/01/03 13:38:30;;;;;;;3.80;2.50;;;;;;;-128.00;-1.00;-1.00;2;588201638;588201638;-34
2024/01/03 13:45:06;;;;;;;3.80;2.50;;;;;;;-128.00;-1.00;-1.00;2;386669158;386669158;-31
2024/01/03 14:33:00;;;;;;;4.10;0.70;;;;;;;-100.64;18.10;19457.54;100673;1288;1599493;-31
2024/01/03 14:35:25;;;;;;;3.30;0.60;;;;;;;-128.00;-1.00;-1.00;100047;1282;1005662;-31
2024/01/03 14:37:51;;;;;;;1.90;0.60;;;;;;;-128.00;-1.00;-1.00;100215;1283;1003265;-31
2024/01/03 14:40:23;;;;;;;3.30;0.50;;;;;;;-128.00;-1.00;-1.00;100237;1283;1002802;-31
2024/01/03 14:42:50;;;;;;;3.20;0.50;;;;;;;-128.00;-1.00;-1.00;100217;1282;1058207;-30
2024/01/03 14:45:16;;;;;;;3.00;0.60;;;;;;;-128.00;-1.00;-1.00;100225;1282;1003083;-35
2024/01/03 14:47:44;;;;;;;2.60;0.70;;;;;;;-128.00;-1.00;-1.00;100296;1288;1003542;-32
2024/01/03 14:50:11;;;;;;;2.30;0.50;;;;;;;-128.00;-1.00;-1.00;100265;1282;1002656;-33
2024/01/03 14:52:37;;;;;;;4.90;0.70;;;;;;;-128.00;-1.00;-1.00;100262;1283;1004315;-34
2024/01/03 14:55:02;;;;;;;5.20;0.90;;;;;;;-128.00;-1.00;-1.00;100317;1282;1003378;-33
2024/01/03 14:57:28;;;;;;;1.30;0.40;;;;;;;-128.00;-1.00;-1.00;100266;1283;1002761;-32
2024/01/03 14:59:54;;;;;;;3.00;0.70;;;;;;;-128.00;-1.00;-1.00;100191;1282;1059121;-33
2024/01/03 15:02:20;;;;;;;6.60;1.30;;;;;;;-128.00;-1.00;-1.00;100238;1283;1003080;-34
2024/01/03 15:04:47;;;;;;;1.60;0.50;;;;;;;-128.00;-1.00;-1.00;100225;1282;1003090;-33
2024/01/03 15:07:13;;;;;;;2.70;0.40;;;;;;;-128.00;-1.00;-1.00;100192;1282;1059212;-30
2024/01/03 15:09:39;;;;;;;3.80;0.60;;;;;;;-128.00;-1.00;-1.00;100265;1283;1002817;-33
2024/01/03 15:12:06;;;;;;;2.80;0.60;;;;;;;-128.00;-1.00;-1.00;100207;1286;1002880;-32
2024/01/03 15:14:33;;;;;;;3.40;1.00;;;;;;;-128.00;-1.00;-1.00;100229;1287;1038473;-31
2024/01/03 15:16:59;;;;;;;3.40;1.50;;;;;;;-128.00;-1.00;-1.00;100222;1282;1003188;-34
2024/01/03 15:19:24;;;;;;;;;;;;;;;-128.00;-1.00;-1.00;100258;1288;1003342;-30
2024/01/03 15:22:09;;;;;;;4.20;0.80;;;;;;;-128.00;-1.00;-1.00;100249;1282;1003458;-31
2024/01/03 15:24:36;;;;;;;5.80;0.80;;;;;;;-128.00;-1.00;-1.00;100269;1283;1013450;-32
2024/01/03 15:27:01;;;;;;;;;;;;;;;-128.00;-1.00;-1.00;100224;1283;1003022;-32
2024/01/03 15:29:27;;;;;;;3.60;0.60;;;;;;;-128.00;-1.00;-1.00;100306;1282;1003287;-33
2024/01/03 15:31:53;;;;;;;3.50;0.90;;;;;;;-128.00;-1.00;-1.00;100289;1283;1056505;-32
2024/01/03 15:34:19;;;;;;;6.50;0.90;;;;;;;-128.00;-1.00;-1.00;100282;1288;1004742;-31
2024/01/03 15:36:44;;;;;;;;;;;;;;;-128.00;-1.00;-1.00;100279;1283;1003265;-33
2024/01/03 15:39:11;;;;;;;3.00;0.60;;;;;;;-128.00;-1.00;-1.00;100240;1283;1046620;-32
2024/01/03 15:41:36;;;;;;;;;;;;;;;-128.00;-1.00;-1.00;100323;1282;1004070;-32
2024/01/03 15:44:02;;;;;;;8.80;0.90;;;;;;;-128.00;-1.00;-1.00;100170;1282;1003819;-33
2024/01/03 15:46:33;;;;;;;2.50;0.70;;;;;;;-128.00;-1.00;-1.00;100220;1283;1012531;-33
2024/01/03 15:48:59;;;;;;;3.50;0.80;;;;;;;-128.00;-1.00;-1.00;100256;1282;1038533;-33
2024/01/03 15:51:25;;;;;;;5.00;0.80;;;;;;;-128.00;-1.00;-1.00;100194;1283;1004353;-35
2024/01/03 15:53:51;;;;;;;3.60;0.80;;;;;;;-128.00;-1.00;-1.00;100209;1283;1002470;-34
2024/01/03 15:56:17;;;;;;;4.40;0.80;;;;;;;-128.00;-1.00;-1.00;100186;1282;1003347;-33
2024/01/03 15:58:43;;;;;;;3.80;1.10;;;;;;;-128.00;-1.00;-1.00;100205;1282;1012389;-33
2024/01/03 16:01:09;;;;;;;2.60;0.70;;;;;;;-128.00;-1.00;-1.00;100222;1283;1004321;-31
2024/01/03 16:03:34;;;;;;;3.90;1.10;;;;;;;-128.00;-1.00;-1.00;100258;1283;1002473;-35
2024/01/03 16:06:00;;;;;;;2.80;1.00;;;;;;;-128.00;-1.00;-1.00;100255;1283;1002639;-32
2024/01/03 16:08:25;;;;;;;2.50;0.80;;;;;;;-128.00;-1.00;-1.00;100148;1283;1003191;-35
2024/01/03 16:10:51;;;;;;;2.60;0.90;;;;;;;-128.00;-1.00;-1.00;100262;1282;1003080;-33
2024/01/03 16:13:17;;;;;;;5.20;1.30;;;;;;;-128.00;-1.00;-1.00;100163;1282;1003482;-33
2024/01/03 16:15:43;;;;;;;5.70;1.60;;;;;;;-128.00;-1.00;-1.00;100297;1288;1003820;-34
2024/01/03 16:18:08;;;;;;;;;;;;;;;-128.00;-1.00;-1.00;100210;1284;1003717;-33
2024/01/03 16:20:34;;;;;;;8.10;3.30;;;;;;;-128.00;-1.00;-1.00;100132;1287;1003691;-33
2024/01/03 16:23:00;;;;;;;5.80;2.80;;;;;;;-128.00;-1.00;-1.00;100275;1286;1039101;-34
2024/01/03 16:25:26;;;;;;;7.70;2.30;;;;;;;-128.00;-1.00;-1.00;100212;1287;1003308;-34
2024/01/03 16:27:52;;;;;;;9.60;2.10;;;;;;;-128.00;-1.00;-1.00;100221;1288;1003066;-33
2024/01/03 16:30:19;;;;;;;10.20;3.50;;;;;;;-128.00;-1.00;-1.00;100207;1283;1004378;-33
2024/01/03 16:32:44;;;;;;;12.60;4.50;;;;;;;-128.00;-1.00;-1.00;100258;1283;1013421;-33
2024/01/03 16:35:12;;;;;;;11.20;4.50;;;;;;;-128.00;-1.00;-1.00;99984;1283;1003010;-34
2024/01/03 16:37:41;;;;;;;6.20;3.10;;;;;;;-128.00;-1.00;-1.00;100253;1282;1003142;-30
2024/01/03 16:40:07;;;;;;;6.10;2.40;;;;;;;-128.00;-1.00;-1.00;100244;1287;1059343;-30
2024/01/03 16:42:38;;;;;;;7.90;2.60;;;;;;;-128.00;-1.00;-1.00;100293;1285;1004350;-30
2024/01/03 16:45:08;;;;;;;7.80;3.10;;;;;;;-128.00;-1.00;-1.00;100173;1287;1059266;-31
2024/01/03 16:47:37;;;;;;;8.60;2.20;;;;;;;-128.00;-1.00;-1.00;100234;1287;1012214;-32
2024/01/03 16:50:05;;;;;;;6.20;2.40;;;;;;;-128.00;-1.00;-1.00;100248;1287;1039271;-32
2024/01/03 16:52:31;;;;;;;7.70;2.70;;;;;;;-128.00;-1.00;-1.00;100228;1288;1045650;-32
2024/01/03 16:54:58;;;;;;;6.00;2.30;;;;;;;-128.00;-1.00;-1.00;100287;1283;1003464;-33
2024/01/03 16:57:24;;;;;;;6.90;2.70;;;;;;;-128.00;-1.00;-1.00;100324;1283;1003175;-32
2024/01/03 16:59:50;;;;;;;4.20;1.20;;;;;;;-128.00;-1.00;-1.00;100243;1282;1002978;-33
2024/01/03 17:02:15;;;;;;;4.80;1.20;;;;;;;-128.00;-1.00;-1.00;100204;1283;1003096;-32
2024/01/03 17:04:41;;;;;;;5.10;0.90;;;;;;;-128.00;-1.00;-1.00;100335;1282;1046504;-34
2024/01/03 17:07:07;;;;;;;2.50;0.80;;;;;;;-128.00;-1.00;-1.00;100253;1283;1003601;-33
2024/01/03 17:09:33;;;;;;;2.90;0.90;;;;;;;-128.00;-1.00;-1.00;100256;1288;1003418;-32
2024/01/03 17:11:59;;;;;;;4.00;1.00;;;;;;;-128.00;-1.00;-1.00;100155;1283;1012740;-32
2024/01/03 17:14:25;;;;;;;2.80;1.20;;;;;;;-128.00;-1.00;-1.00;100233;1288;1005512;-33
2024/01/03 17:16:51;;;;;;;2.90;1.10;;;;;;;-128.00;-1.00;-1.00;100231;1288;1003680;-33
2024/01/03 17:19:16;;;;;;;2.80;1.00;;;;;;;-128.00;-1.00;-1.00;100274;1283;1004720;-32
2024/01/03 17:21:42;;;;;;;1.70;0.80;;;;;;;-128.00;-1.00;-1.00;100180;1285;1060640;-33
2024/01/03 17:24:08;;;;;;;4.70;0.90;;;;;;;-128.00;-1.00;-1.00;100141;1283;1004192;-32
2024/01/03 17:26:35;;;;;;;;;;;;;;;-128.00;-1.00;-1.00;100182;1288;1002847;-32
2024/01/03 17:29:02;;;;;;;4.60;1.30;;;;;;;-128.00;-1.00;-1.00;100232;1282;1060821;-32
2024/01/03 17:31:31;;;;;;;8.80;1.60;;;;;;;-128.00;-1.00;-1.00;100164;1283;1003663;-34
2024/01/03 17:33:57;;;;;;;6.20;1.50;;;;;;;-128.00;-1.00;-1.00;100163;1282;1059609;-32
2024/01/03 17:36:23;;;;;;;3.90;1.20;;;;;;;-128.00;-1.00;-1.00;100135;1283;1003286;-31
2024/01/03 17:38:49;;;;;;;4.40;1.30;;;;;;;-128.00;-1.00;-1.00;100156;1287;1003779;-32
2024/01/03 17:41:22;;;;;;;6.40;1.40;;;;;;;-128.00;-1.00;-1.00;100268;1282;1003338;-33
2024/01/03 17:43:48;;;;;;;5.10;1.40;;;;;;;-128.00;-1.00;-1.00;100180;1282;1056707;-33
2024/01/03 17:46:13;;;;;;;5.80;1.80;;;;;;;-128.00;-1.00;-1.00;100253;1288;1003208;-33
2024/01/03 17:48:39;;;;;;;8.20;1.90;;;;;;;-128.00;-1.00;-1.00;100204;1288;1003436;-32
2024/01/03 17:51:05;;;;;;;3.60;1.20;;;;;;;-128.00;-1.00;-1.00;100273;1285;1046889;-33
2024/01/03 17:53:33;;;;;;;7.40;1.50;;;;;;;-128.00;-1.00;-1.00;100259;1283;1003786;-34
2024/01/03 17:55:59;;;;;;;9.40;4.50;;;;;;;-128.00;-1.00;-1.00;100223;1288;1002414;-34
2024/01/03 17:58:25;;;;;;;5.00;1.70;;;;;;;-128.00;-1.00;-1.00;100134;1287;1003281;-33
2024/01/03 18:00:50;;;;;;;5.30;1.90;;;;;;;-128.00;-1.00;-1.00;100249;1283;1038704;-34
2024/01/03 18:03:16;;;;;;;4.90;1.70;;;;;;;-128.00;-1.00;-1.00;100213;1283;1003825;-36
2024/01/03 18:05:45;;;;;;;3.70;1.70;;;;;;;-128.00;-1.00;-1.00;100232;1288;1003556;-33
2024/01/03 18:08:11;;;;;;;7.70;2.30;;;;;;;-128.00;-1.00;-1.00;100137;1285;1060182;-33
2024/01/03 18:10:38;;;;;;;5.00;1.70;;;;;;;-128.00;-1.00;-1.00;100160;1283;1005166;-32
2024/01/03 18:13:04;;;;;;;6.80;2.10;;;;;;;-128.00;-1.00;-1.00;100267;1288;1003342;-32
2024/01/03 18:15:32;;;;;;;5.30;1.70;;;;;;;-128.00;-1.00;-1.00;100223;1288;1003200;-33
2024/01/03 18:17:59;;;;;;;6.00;2.10;;;;;;;-128.00;-1.00;-1.00;100213;1283;1060944;-33
2024/01/03 18:20:25;;;;;;;4.00;1.40;;;;;;;-128.00;-1.00;-1.00;100218;1288;1003894;-33
2024/01/03 18:22:51;;;;;;;8.00;2.00;;;;;;;-128.00;-1.00;-1.00;100165;1288;1003015;-32
2024/01/03 18:25:19;;;;;;;7.40;2.30;;;;;;;-128.00;-1.00;-1.00;100190;1283;1040472;-33
2024/01/03 18:27:44;;;;;;;6.30;2.20;;;;;;;-128.00;-1.00;-1.00;100236;1283;1003608;-31
2024/01/03 18:30:11;;;;;;;4.70;1.90;;;;;;;-128.00;-1.00;-1.00;100363;1283;1004050;-33
2024/01/03 18:32:37;;;;;;;6.10;1.80;;;;;;;-128.00;-1.00;-1.00;100137;1283;1059991;-32
2024/01/03 18:35:04;;;;;;;6.20;2.10;;;;;;;-128.00;-1.00;-1.00;100220;1283;1003123;-30
2024/01/03 18:37:31;;;;;;;4.80;2.10;;;;;;;-128.00;-1.00;-1.00;100258;1289;1003320;-31
2024/01/03 18:39:56;;;;;;;5.90;2.00;;;;;;;-128.00;-1.00;-1.00;100205;1287;1003884;-32
2024/01/03 18:42:22;;;;;;;5.40;2.30;;;;;;;-128.00;-1.00;-1.00;100185;1288;1003560;-31
2024/01/03 18:44:47;;;;;;;6.80;2.40;;;;;;;-128.00;-1.00;-1.00;100194;1286;1002137;-32
2024/01/03 18:47:13;;;;;;;5.90;2.30;;;;;;;-128.00;-1.00;-1.00;100192;1288;1012958;-32
2024/01/03 18:49:39;;;;;;;6.70;2.90;;;;;;;-128.00;-1.00;-1.00;100192;1284;1003194;-31
2024/01/03 19:33:50;;;;;;;3.60;1.40;;;;;;;-101.27;19.20;19450.45;100800;1283;1599838;-31
2024/01/03 19:36:20;;;;;;;4.10;1.20;;;;;;;-128.00;-1.00;-1.00;100080;1285;1013206;-32
2024/01/03 19:38:46;;;;;;;5.20;1.30;;;;;;;-128.00;-1.00;-1.00;100280;1282;1038934;-36
2024/01/03 19:41:12;;;;;;;4.30;1.10;;;;;;;-128.00;-1.00;-1.00;100320;1283;1003208;-32
2024/01/03 19:43:37;;;;;;;3.40;0.90;;;;;;;-128.00;-1.00;-1.00;100325;1285;1003417;-31
2024/01/03 19:46:06;;;;;;;2.20;0.90;;;;;;;-128.00;-1.00;-1.00;100393;1283;1004748;-32
2024/01/03 19:48:33;;;;;;;2.60;1.10;;;;;;;-128.00;-1.00;-1.00;100271;1282;1013568;-31
2024/01/03 19:50:58;;;;;;;5.20;2.00;;;;;;;-128.00;-1.00;-1.00;100303;1285;1002386;-31
2024/01/03 19:53:24;;;;;;;4.40;1.10;;;;;;;-128.00;-1.00;-1.00;100249;1283;1003704;-32
2024/01/03 19:55:51;;;;;;;4.80;1.00;;;;;;;-128.00;-1.00;-1.00;100371;1283;1002751;-32
2024/01/03 19:58:17;;;;;;;3.90;0.90;;;;;;;-128.00;-1.00;-1.00;100242;1282;1059392;-30
2024/01/03 20:00:42;;;;;;;4.80;1.90;;;;;;;-128.00;-1.00;-1.00;100390;1283;1005118;-32
2024/01/03 20:03:08;;;;;;;2.70;1.10;;;;;;;-128.00;-1.00;-1.00;100356;1285;1004043;-31
2024/01/03 20:05:34;;;;;;;3.20;1.10;;;;;;;-128.00;-1.00;-1.00;100210;1283;1058761;-32
2024/01/03 20:08:00;;;;;;;;;;;;;;;-128.00;-1.00;-1.00;100332;1281;1004664;-33
2024/01/03 20:10:27;;;;;;;4.90;1.00;;;;;;;-128.00;-1.00;-1.00;100211;1282;1004713;-31
2024/01/03 20:12:52;;;;;;;2.20;1.00;;;;;;;-128.00;-1.00;-1.00;100301;1281;1003555;-32
2024/01/03 20:15:18;;;;;;;3.00;1.10;;;;;;;-128.00;-1.00;-1.00;100341;1282;1004846;-32
2024/01/03 20:17:44;;;;;;;2.80;1.00;;;;;;;-128.00;-1.00;-1.00;100279;1283;1002841;-32
2024/01/03 20:20:10;;;;;;;3.20;0.80;;;;;;;-128.00;-1.00;-1.00;100200;1282;1056065;-32
2024/01/03 20:22:39;;;;;;;2.80;0.80;;;;;;;-128.00;-1.00;-1.00;100202;1283;1004562;-32
2024/01/03 20:25:05;;;;;;;1.60;0.50;;;;;;;-128.00;-1.00;-1.00;100261;1281;1012076;-32
2024/01/03 20:27:31;;;;;;;2.20;0.70;;;;;;;-128.00;-1.00;-1.00;100238;1283;1003438;-33
2024/01/03 20:29:57;;;;;;;3.20;0.80;;;;;;;-128.00;-1.00;-1.00;100224;1283;1003195;-32
2024/01/03 20:32:23;;;;;;;3.30;0.80;;;;;;;-128.00;-1.00;-1.00;100337;1283;1002708;-33
2024/01/03 20:34:49;;;;;;;;;;;;;;;-128.00;-1.00;-1.00;100263;1282;1058251;-33
2024/01/03 20:37:14;;;;;;;2.40;0.80;;;;;;;-128.00;-1.00;-1.00;100277;1283;1002703;-33
2024/01/03 20:39:40;;;;;;;1.60;0.60;;;;;;;-128.00;-1.00;-1.00;100238;1282;1003072;-33
2024/01/03 20:42:06;;;;;;;3.80;0.70;;;;;;;-128.00;-1.00;-1.00;100028;1283;1003173;-33
2024/01/03 20:44:32;;;;;;;5.20;0.80;;;;;;;-128.00;-1.00;-1.00;100295;1282;1003630;-34
2024/01/03 20:46:57;;;;;;;2.60;0.50;;;;;;;-128.00;-1.00;-1.00;100308;1283;1014116;-32
2024/01/03 20:49:24;;;;;;;3.30;0.80;;;;;;;-128.00;-1.00;-1.00;100204;1283;1003184;-32
2024/01/03 20:51:50;;;;;;;1.40;0.50;;;;;;;-128.00;-1.00;-1.00;100229;1282;1004225;-31
2024/01/03 20:54:15;;;;;;;3.20;0.80;;;;;;;-128.00;-1.00;-1.00;100313;1282;1004415;-31
2024/01/03 20:56:42;;;;;;;2.30;0.70;;;;;;;-128.00;-1.00;-1.00;100266;1282;1002981;-31
2024/01/03 20:59:07;;;;;;;2.60;0.80;;;;;;;-128.00;-1.00;-1.00;100269;1283;1003119;-32
2024/01/03 21:01:33;;;;;;;2.60;0.60;;;;;;;-128.00;-1.00;-1.00;100268;1283;1002424;-32
2024/01/03 21:03:58;;;;;;;2.80;0.80;;;;;;;-128.00;-1.00;-1.00;100234;1283;1060507;-32
2024/01/03 21:06:24;;;;;;;2.90;0.70;;;;;;;-128.00;-1.00;-1.00;100284;1281;1003595;-32
2024/01/03 21:08:50;;;;;;;3.20;0.70;;;;;;;-128.00;-1.00;-1.00;100231;1283;1003685;-32
2024/01/03 21:11:17;;;;;;;2.20;0.90;;;;;;;-128.00;-1.00;-1.00;100313;1282;1003371;-32
2024/01/03 21:13:43;;;;;;;2.40;0.70;;;;;;;-128.00;-1.00;-1.00;100283;1283;1004061;-31
2024/01/03 21:16:08;;;;;;;2.20;0.80;;;;;;;-128.00;-1.00;-1.00;100366;1283;1004145;-37
2024/01/03 21:18:37;;;;;;;1.90;0.60;;;;;;;-128.00;-1.00;-1.00;100271;1283;1059989;-34